Flight Track Log - Related Links

Times and Time Zones

All times are in EDT time to prevent confusion due to time zone crossing. See the TAM3751 flight status page for this flight to view local times or setup timezone preferences in your user account.

Time Position Orientation Groundspeed Altitude Reporting Facility
EDT Latitude Longitude Course Direction KTS MPH feet Rate Location/Type
Sun 12:29:49 AM -3.0390 -60.0290 91° East 170 196 1,100  Level FlightAware ADS-B
Sun 12:30:01 AM -3.0390 -60.0200 90° East 174 200 1,400 1,000 Climbing FlightAware ADS-B
Sun 12:30:37 AM -3.0390 -59.9880 90° East 211 243 1,900 1,200 Climbing FlightAware ADS-B
Sun 12:31:21 AM -3.0520 -59.9470 108° East 234 269 3,000 1,479 Climbing FlightAware ADS-B
Sun 12:31:50 AM -3.0820 -59.9320 153° Southeast 260 299 3,700 1,698 Climbing FlightAware ADS-B
Sun 12:32:14 AM -3.1080 -59.9200 155° Southeast 266 306 4,500 2,444 Climbing FlightAware ADS-B
Sun 12:32:44 AM -3.1440 -59.9030 155° Southeast 267 307 5,900 2,571 Climbing FlightAware ADS-B
Sun 12:33:10 AM -3.1730 -59.8890 154° Southeast 270 311 6,900 2,222 Climbing FlightAware ADS-B
Sun 12:33:38 AM -3.2050 -59.8750 156° South 274 315 7,900 2,000 Climbing FlightAware ADS-B
Sun 12:34:10 AM -3.2430 -59.8570 155° Southeast 285 328 8,900 2,100 Climbing FlightAware ADS-B
Sun 12:34:38 AM -3.2760 -59.8410 154° Southeast 287 330 10,000 1,588 Climbing FlightAware ADS-B
Sun 12:35:18 AM -3.3270 -59.8170 155° Southeast 317 365 10,700 929 Climbing FlightAware ADS-B
Sun 12:36:02 AM -3.3900 -59.7870 155° Southeast 356 410 11,300 878 Climbing FlightAware ADS-B
Sun 12:36:40 AM -3.4490 -59.7600 155° Southeast 384 442 11,900 1,500 Climbing FlightAware ADS-B
Sun 12:37:26 AM -3.5250 -59.7260 156° South 386 444 13,400 1,744 Climbing FlightAware ADS-B
Sun 12:38:06 AM -3.5910 -59.6950 155° Southeast 395 455 14,400 1,500 Climbing FlightAware ADS-B
Sun 12:38:46 AM -3.6580 -59.6650 156° South 404 465 15,400 1,553 Climbing FlightAware ADS-B
Sun 12:39:31 AM -3.7350 -59.6290 155° Southeast 408 470 16,600 907 Climbing FlightAware ADS-B
Sun 12:40:12 AM -3.7950 -59.6010 155° Southeast 408 470 16,700 78 Climbing FlightAware ADS-B
Sun 12:40:48 AM -3.8470 -59.5770 155° Southeast 408 470 16,700  Level FlightAware ADS-B
Sun 12:41:36 AM -3.9170 -59.5440 155° Southeast 408 470 16,700  Level FlightAware ADS-B
Sun 12:42:12 AM -3.9690 -59.5200 155° Southeast 408 470 16,700  Level FlightAware ADS-B
Sun 12:43:01 AM -4.0410 -59.4860 155° Southeast 408 470 16,700 122 Level FlightAware ADS-B
Sun 12:45:00 AM -4.2269 -59.3705 148° Southeast  Level Estimated
Sun 12:46:00 AM -4.3207 -59.3123 148° Southeast  Level Estimated
Sun 12:47:00 AM -4.4144 -59.2540 148° Southeast  Level Estimated
Sun 12:48:00 AM -4.5081 -59.1958 148° Southeast  Level Estimated
Sun 12:49:00 AM -4.6019 -59.1375 148° Southeast  Level Estimated
Sun 12:50:00 AM -4.6956 -59.0792 148° Southeast  Level Estimated
Sun 12:51:00 AM -4.7893 -59.0209 148° Southeast  Level Estimated
Sun 12:52:00 AM -4.8830 -58.9625 148° Southeast  Level Estimated
Sun 12:53:00 AM -4.9767 -58.9042 148° Southeast  Level Estimated
Sun 12:54:00 AM -5.0704 -58.8458 148° Southeast  Level Estimated
Sun 12:55:00 AM -5.1641 -58.7874 148° Southeast  Level Estimated
Sun 12:56:00 AM -5.2578 -58.7290 148° Southeast  Level Estimated
Sun 12:57:00 AM -5.3515 -58.6706 148° Southeast  Level Estimated
Sun 12:58:00 AM -5.4451 -58.6122 148° Southeast  Level Estimated
Sun 12:59:00 AM -5.5388 -58.5537 148° Southeast  Level Estimated
Sun 01:00:00 AM -5.6325 -58.4953 148° Southeast  Level Estimated
Sun 01:01:00 AM -5.7262 -58.4368 148° Southeast  Level Estimated
Sun 01:02:00 AM -5.8198 -58.3783 148° Southeast  Level Estimated
Sun 01:03:00 AM -5.9135 -58.3197 148° Southeast  Level Estimated
Sun 01:04:00 AM -6.0071 -58.2612 148° Southeast  Level Estimated
Sun 01:05:00 AM -6.1007 -58.2026 148° Southeast  Level Estimated
Sun 01:06:00 AM -6.1944 -58.1440 148° Southeast  Level Estimated
Sun 01:07:00 AM -6.2880 -58.0854 148° Southeast  Level Estimated
Sun 01:08:00 AM -6.3816 -58.0268 148° Southeast  Level Estimated
Sun 01:09:00 AM -6.4752 -57.9681 148° Southeast  Level Estimated
Sun 01:10:00 AM -6.5688 -57.9095 148° Southeast  Level Estimated
Sun 01:11:00 AM -6.6624 -57.8507 148° Southeast  Level Estimated
Sun 01:12:00 AM -6.7560 -57.7920 148° Southeast  Level Estimated
Sun 01:13:00 AM -6.8496 -57.7333 148° Southeast  Level Estimated
Sun 01:14:00 AM -6.9432 -57.6745 148° Southeast  Level Estimated
Sun 01:15:00 AM -7.0367 -57.6157 148° Southeast  Level Estimated
Sun 01:16:00 AM -7.1303 -57.5569 148° Southeast  Level Estimated
Sun 01:17:00 AM -7.2238 -57.4981 148° Southeast  Level Estimated
Sun 01:18:00 AM -7.3174 -57.4392 148° Southeast  Level Estimated
Sun 01:19:00 AM -7.4109 -57.3803 148° Southeast  Level Estimated
Sun 01:20:00 AM -7.5045 -57.3214 148° Southeast  Level Estimated
Sun 01:21:00 AM -7.5980 -57.2625 148° Southeast  Level Estimated
Sun 01:22:00 AM -7.6915 -57.2035 148° Southeast  Level Estimated
Sun 01:23:00 AM -7.7850 -57.1445 148° Southeast  Level Estimated
Sun 01:24:00 AM -7.8785 -57.0855 148° Southeast  Level Estimated
Sun 01:25:00 AM -7.9720 -57.0265 148° Southeast  Level Estimated
Sun 01:26:00 AM -8.0655 -56.9674 148° Southeast  Level Estimated
Sun 01:27:00 AM -8.1590 -56.9083 148° Southeast  Level Estimated
Sun 01:28:00 AM -8.2524 -56.8492 148° Southeast  Level Estimated
Sun 01:29:00 AM -8.3459 -56.7901 148° Southeast  Level Estimated
Sun 01:30:00 AM -8.4393 -56.7309 148° Southeast  Level Estimated
Sun 01:31:00 AM -8.5328 -56.6717 148° Southeast  Level Estimated
Sun 01:32:00 AM -8.6262 -56.6124 148° Southeast  Level Estimated
Sun 01:33:00 AM -8.7196 -56.5532 148° Southeast  Level Estimated
Sun 01:34:00 AM -8.8130 -56.4939 148° Southeast  Level Estimated
Sun 01:35:00 AM -8.9064 -56.4346 148° Southeast  Level Estimated
Sun 01:36:00 AM -8.9998 -56.3752 148° Southeast  Level Estimated
Sun 01:37:00 AM -9.0932 -56.3158 148° Southeast  Level Estimated
Sun 01:38:00 AM -9.1866 -56.2564 148° Southeast  Level Estimated
Sun 01:39:00 AM -9.2799 -56.1969 148° Southeast  Level Estimated
Sun 01:40:00 AM -9.3733 -56.1375 148° Southeast  Level Estimated
Sun 01:41:00 AM -9.4666 -56.0779 148° Southeast  Level Estimated
Sun 01:42:00 AM -9.5600 -56.0184 148° Southeast  Level Estimated
Sun 01:43:00 AM -9.6533 -55.9588 148° Southeast  Level Estimated
Sun 01:44:00 AM -9.7466 -55.8992 148° Southeast  Level Estimated
Sun 01:45:00 AM -9.8399 -55.8396 148° Southeast  Level Estimated
Sun 01:46:00 AM -9.9332 -55.7799 148° Southeast  Level Estimated
Sun 01:47:00 AM -10.0265 -55.7202 148° Southeast  Level Estimated
Sun 01:48:00 AM -10.1197 -55.6604 148° Southeast  Level Estimated
Sun 01:49:00 AM -10.2130 -55.6007 148° Southeast  Level Estimated
Sun 01:50:00 AM -10.3062 -55.5408 148° Southeast  Level Estimated
Sun 01:51:00 AM -10.3995 -55.4810 148° Southeast  Level Estimated
Sun 01:52:00 AM -10.4927 -55.4211 148° Southeast  Level Estimated
Sun 01:53:00 AM -10.5859 -55.3612 148° Southeast  Level Estimated
Sun 01:54:00 AM -10.6791 -55.3012 148° Southeast  Level Estimated
Sun 01:55:00 AM -10.7723 -55.2412 148° Southeast  Level Estimated
Sun 01:56:00 AM -10.8655 -55.1812 148° Southeast  Level Estimated
Sun 01:57:00 AM -10.9587 -55.1211 148° Southeast  Level Estimated
Sun 01:58:00 AM -11.0518 -55.0610 148° Southeast  Level Estimated
Sun 01:59:00 AM -11.1450 -55.0009 148° Southeast  Level Estimated
Sun 02:00:00 AM -11.2381 -54.9407 148° Southeast  Level Estimated
Sun 02:01:00 AM -11.3313 -54.8805 148° Southeast  Level Estimated
Sun 02:02:00 AM -11.4244 -54.8202 148° Southeast  Level Estimated
Sun 02:03:00 AM -11.5175 -54.7599 148° Southeast  Level Estimated
Sun 02:04:00 AM -11.6105 -54.6996 148° Southeast  Level Estimated
Sun 02:05:00 AM -11.7036 -54.6392 148° Southeast  Level Estimated
Sun 02:06:00 AM -11.7967 -54.5788 148° Southeast  Level Estimated
Sun 02:07:00 AM -11.8897 -54.5183 148° Southeast  Level Estimated
Sun 02:08:00 AM -11.9828 -54.4578 148° Southeast  Level Estimated
Sun 02:09:00 AM -12.0758 -54.3972 148° Southeast  Level Estimated
Sun 02:10:00 AM -12.1688 -54.3367 148° Southeast  Level Estimated
Sun 02:11:00 AM -12.2618 -54.2760 148° Southeast  Level Estimated
Sun 02:12:00 AM -12.3548 -54.2154 147° Southeast  Level Estimated
Sun 02:13:00 AM -12.4478 -54.1546 147° Southeast  Level Estimated
Sun 02:14:00 AM -12.5407 -54.0939 147° Southeast  Level Estimated
Sun 02:15:00 AM -12.6336 -54.0331 147° Southeast  Level Estimated
Sun 02:16:00 AM -12.7266 -53.9722 147° Southeast  Level Estimated
Sun 02:17:00 AM -12.8195 -53.9113 147° Southeast  Level Estimated
Sun 02:18:00 AM -12.9124 -53.8504 147° Southeast  Level Estimated
Sun 02:19:00 AM -13.0053 -53.7894 147° Southeast  Level Estimated
Sun 02:20:00 AM -13.0982 -53.7284 147° Southeast  Level Estimated
Sun 02:21:00 AM -13.1910 -53.6673 147° Southeast  Level Estimated
Sun 02:22:00 AM -13.2839 -53.6062 147° Southeast  Level Estimated
Sun 02:23:00 AM -13.3767 -53.5450 147° Southeast  Level Estimated
Sun 02:24:00 AM -13.4695 -53.4838 147° Southeast  Level Estimated
Sun 02:25:00 AM -13.5623 -53.4225 147° Southeast  Level Estimated
Sun 02:26:00 AM -13.6551 -53.3612 147° Southeast  Level Estimated
Sun 02:27:00 AM -13.7479 -53.2999 147° Southeast  Level Estimated
Sun 02:28:00 AM -13.8406 -53.2384 147° Southeast  Level Estimated
Sun 02:29:00 AM -13.9333 -53.1770 147° Southeast  Level Estimated
Sun 02:30:00 AM -14.0261 -53.1155 147° Southeast  Level Estimated
Sun 02:31:00 AM -14.1188 -53.0539 147° Southeast  Level Estimated
Sun 02:32:00 AM -14.2115 -52.9923 147° Southeast  Level Estimated
Sun 02:33:00 AM -14.3041 -52.9306 147° Southeast  Level Estimated
Sun 02:34:00 AM -14.3968 -52.8689 147° Southeast  Level Estimated
Sun 02:35:00 AM -14.4895 -52.8072 147° Southeast  Level Estimated
Sun 02:36:00 AM -14.5821 -52.7454 147° Southeast  Level Estimated
Sun 02:37:00 AM -14.6747 -52.6835 147° Southeast  Level Estimated
Sun 02:38:00 AM -14.7673 -52.6216 147° Southeast  Level Estimated
Sun 02:39:00 AM -14.8599 -52.5596 147° Southeast  Level Estimated
Sun 02:40:00 AM -14.9524 -52.4976 147° Southeast  Level Estimated
Sun 02:41:00 AM -15.0450 -52.4355 147° Southeast  Level Estimated
Sun 02:42:00 AM -15.1375 -52.3734 147° Southeast  Level Estimated
Sun 02:43:00 AM -15.2300 -52.3112 147° Southeast  Level Estimated
Sun 02:44:00 AM -15.3225 -52.2490 147° Southeast  Level Estimated
Sun 02:45:00 AM -15.4150 -52.1867 147° Southeast  Level Estimated
Sun 02:46:00 AM -15.5075 -52.1243 147° Southeast  Level Estimated
Sun 02:47:00 AM -15.5999 -52.0619 147° Southeast  Level Estimated
Sun 02:48:00 AM -15.6923 -51.9995 147° Southeast  Level Estimated
Sun 02:49:00 AM -15.7847 -51.9370 147° Southeast  Level Estimated
Sun 02:50:00 AM -15.8771 -51.8744 147° Southeast  Level Estimated
Sun 02:51:00 AM -15.9695 -51.8117 147° Southeast  Level Estimated
Sun 02:52:00 AM -16.0618 -51.7491 147° Southeast  Level Estimated
Sun 02:53:00 AM -16.1542 -51.6863 147° Southeast  Level Estimated
Sun 02:54:00 AM -16.2465 -51.6235 147° Southeast  Level Estimated
Sun 02:55:00 AM -16.3388 -51.5606 147° Southeast  Level Estimated
Sun 02:55:36 AM -18.7260 -50.0990 147° Southeast 482 555 33,000  Level FlightAware ADS-B
Sun 02:56:00 AM -16.4311 -51.4977 147° Southeast  Level Estimated
Sun 02:56:26 AM -18.8150 -50.0270 143° Southeast 480 552 33,000  Level FlightAware ADS-B
Sun 02:57:12 AM -18.8970 -49.9610 143° Southeast 479 551 33,000  Level FlightAware ADS-B
Sun 02:57:58 AM -18.9760 -49.8970 143° Southeast 478 550 33,000  Level FlightAware ADS-B
Sun 02:58:42 AM -19.0530 -49.8320 141° Southeast 478 550 33,000  Level FlightAware ADS-B
Sun 02:59:22 AM -19.1230 -49.7750 142° Southeast 479 551 33,000  Level FlightAware ADS-B
Sun 03:00:06 AM -19.2000 -49.7110 142° Southeast 478 550 33,000  Level FlightAware ADS-B
Sun 03:00:44 AM -19.2650 -49.6560 141° Southeast 478 550 33,000  Level FlightAware ADS-B
Sun 03:00:54 AM -19.2830 -49.6410 142° Southeast 478 550 33,000  Level FlightAware ADS-B
Sun 03:03:24 AM -19.5440 -49.4250 142° Southeast 476 548 33,000  Level FlightAware ADS-B
Sun 03:04:03 AM -19.6090 -49.3700 141° Southeast 476 548 33,000  Level FlightAware ADS-B
Sun 03:04:50 AM -19.6940 -49.2990 142° Southeast 476 548 33,000  Level FlightAware ADS-B
Sun 03:05:25 AM -19.7520 -49.2500 142° Southeast 476 548 33,000  Level FlightAware ADS-B
Sun 03:06:06 AM -19.8260 -49.1880 142° Southeast 476 548 33,000  Level FlightAware ADS-B
Sun 03:06:35 AM -19.8730 -49.1490 142° Southeast 477 549 33,000  Level FlightAware ADS-B
Sun 03:07:14 AM -19.9440 -49.0890 142° Southeast 478 550 33,000  Level FlightAware ADS-B
Sun 03:07:59 AM -20.0130 -49.0310 142° Southeast 477 549 33,000  Level FlightAware ADS-B
Sun 03:08:38 AM -20.0860 -48.9700 142° Southeast 477 549 33,000  Level FlightAware ADS-B
Sun 03:09:20 AM -20.1600 -48.9080 142° Southeast 476 548 33,000  Level FlightAware ADS-B
Sun 03:10:04 AM -20.2350 -48.8440 141° Southeast 476 548 33,000  Level FlightAware ADS-B
Sun 03:10:40 AM -20.2980 -48.7910 142° Southeast 476 548 33,000  Level FlightAware ADS-B
Sun 03:11:21 AM -20.3700 -48.7300 142° Southeast 476 548 33,000  Level FlightAware ADS-B
Sun 03:12:05 AM -20.4460 -48.6660 142° Southeast 474 545 33,000  Level FlightAware ADS-B
Sun 03:12:37 AM -20.5020 -48.6180 141° Southeast 475 547 33,000  Level FlightAware ADS-B
Sun 03:13:21 AM -20.5770 -48.5550 142° Southeast 475 547 33,000  Level FlightAware ADS-B
Sun 03:14:01 AM -20.6450 -48.4970 141° Southeast 476 548 33,000  Level FlightAware ADS-B
Sun 03:14:45 AM -20.7210 -48.4320 141° Southeast 476 548 33,000  Level FlightAware ADS-B
Sun 03:15:25 AM -20.7900 -48.3730 141° Southeast 476 548 33,000  Level FlightAware ADS-B
Sun 03:16:09 AM -20.8660 -48.3080 141° Southeast 476 548 33,000  Level FlightAware ADS-B
Sun 03:16:49 AM -20.9360 -48.2500 142° Southeast 472 543 33,000  Level FlightAware ADS-B
Sun 03:17:25 AM -21.0000 -48.2040 146° Southeast 470 541 33,000  Level FlightAware ADS-B
Sun 03:18:06 AM -21.0720 -48.1510 146° Southeast 472 543 33,000  Level FlightAware ADS-B
Sun 03:18:49 AM -21.1510 -48.0920 145° Southeast 473 544 33,000  Level FlightAware ADS-B
Sun 03:19:25 AM -21.2170 -48.0430 145° Southeast 474 545 33,000  Level FlightAware ADS-B
Sun 03:19:57 AM -21.2730 -48.0000 144° Southeast 475 547 33,000  Level FlightAware ADS-B
Sun 03:20:41 AM -21.3530 -47.9400 145° Southeast 476 548 33,000  Level FlightAware ADS-B
Sun 03:21:14 AM -21.4100 -47.8970 145° Southeast 477 549 33,000  Level FlightAware ADS-B
Sun 03:21:57 AM -21.4910 -47.8360 145° Southeast 477 549 33,000  Level FlightAware ADS-B
Sun 03:22:41 AM -21.5700 -47.7770 145° Southeast 477 549 33,000  Level FlightAware ADS-B
Sun 03:23:21 AM -21.6430 -47.7220 145° Southeast 476 548 33,000  Level FlightAware ADS-B
Sun 03:24:05 AM -21.7220 -47.6620 145° Southeast 476 548 33,000  Level FlightAware ADS-B
Sun 03:24:37 AM -21.7800 -47.6180 145° Southeast 476 548 33,000  Level FlightAware ADS-B
Sun 03:25:21 AM -21.8590 -47.5580 145° Southeast 477 549 33,000 -225 Level FlightAware ADS-B
Sun 03:25:57 AM -21.9250 -47.5080 145° Southeast 477 549 32,700 -1,059 Descending FlightAware ADS-B
Sun 03:26:46 AM -22.0110 -47.4420 145° Southeast 471 542 31,500 -1,733 Descending FlightAware ADS-B
Sun 03:27:27 AM -22.0840 -47.3870 145° Southeast 463 533 30,100 -2,122 Descending FlightAware ADS-B
Sun 03:28:08 AM -22.1550 -47.3330 145° Southeast 456 525 28,600 -2,214 Descending FlightAware ADS-B
Sun 03:28:51 AM -22.2300 -47.2760 145° Southeast 451 519 27,000 -2,214 Descending FlightAware ADS-B
Sun 03:29:32 AM -22.3020 -47.2200 144° Southeast 445 512 25,500 -2,222 Descending FlightAware ADS-B
Sun 03:30:12 AM -22.3680 -47.1690 144° Southeast 446 513 24,000 -2,118 Descending FlightAware ADS-B
Sun 03:30:57 AM -22.4430 -47.1120 145° Southeast 440 506 22,500 -2,071 Descending FlightAware ADS-B
Sun 03:31:36 AM -22.5090 -47.0620 145° Southeast 435 501 21,100 -2,118 Descending FlightAware ADS-B
Sun 03:32:22 AM -22.5850 -47.0070 146° Southeast 426 490 19,500 -2,188 Descending FlightAware ADS-B
Sun 03:33:01 AM -22.6530 -46.9690 153° Southeast 427 491 18,000 -2,351 Descending FlightAware ADS-B
Sun 03:33:36 AM -22.7130 -46.9340 152° Southeast 427 491 16,600 -2,296 Descending FlightAware ADS-B
Sun 03:34:22 AM -22.7940 -46.8880 152° Southeast 420 483 14,900 -2,125 Descending FlightAware ADS-B
Sun 03:35:12 AM -22.8790 -46.8410 153° Southeast 419 482 13,200 -2,163 Descending FlightAware ADS-B
Sun 03:35:48 AM -22.9400 -46.8060 152° Southeast 401 461 11,800 -1,829 Descending FlightAware ADS-B
Sun 03:36:34 AM -23.0150 -46.7640 153° Southeast 381 438 10,700 -1,171 Descending FlightAware ADS-B
Sun 03:37:10 AM -23.0700 -46.7340 153° Southeast 363 418 10,200 -831 Descending FlightAware ADS-B
Sun 03:37:39 AM -23.1130 -46.7100 153° Southeast 345 397 9,800 -1,017 Descending FlightAware ADS-B
Sun 03:38:09 AM -23.1550 -46.6850 151° Southeast 332 382 9,200 -1,174 Descending FlightAware ADS-B
Sun 03:38:25 AM -23.1700 -46.6640 128° Southeast 339 390 8,900 -1,067 Descending FlightAware ADS-B
Sun 03:38:54 AM -23.1860 -46.6170 110° East 335 386 8,400 -923 Descending FlightAware ADS-B
Sun 03:39:04 AM -23.1910 -46.6020 110° East 334 384 8,300 -600 Descending FlightAware ADS-B
Sun 03:39:34 AM -23.2070 -46.5550 110° East 318 366 8,000 -436 Descending FlightAware ADS-B
Sun 03:39:59 AM -23.2190 -46.5190 110° East 307 353 7,900 -960 Descending FlightAware ADS-B
Sun 03:40:24 AM -23.2320 -46.4820 111° Southeast 307 353 7,200 -1,412 Descending FlightAware ADS-B
Sun 03:40:50 AM -23.2450 -46.4460 111° Southeast 301 346 6,700 -1,050 Descending FlightAware ADS-B
Sun 03:41:04 AM -23.2520 -46.4250 110° East 300 345 6,500 -818 Descending FlightAware ADS-B
Sun 03:41:34 AM -23.2660 -46.3820 110° East 294 338 6,100 -643 Descending FlightAware ADS-B
Sun 03:42:00 AM -23.2780 -46.3470 110° East 289 333 5,900 -436 Descending FlightAware ADS-B
Sun 03:42:29 AM -23.2920 -46.3080 111° Southeast 290 334 5,700 -407 Descending FlightAware ADS-B
Sun 03:42:59 AM -23.3090 -46.2670 114° Southeast 293 337 5,500 -300 Descending FlightAware ADS-B
Sun 03:43:09 AM -23.3210 -46.2580 145° Southeast 279 321 5,500  Level FlightAware ADS-B
Sun 03:43:24 AM -23.3360 -46.2540 166° South 258 297 5,500 -667 Level FlightAware ADS-B
Sun 03:43:54 AM -23.3660 -46.2710 207° Southwest 223 257 5,000 -764 Descending FlightAware ADS-B
Sun 03:44:19 AM -23.3850 -46.2910 224° Southwest 209 241 4,800 -480 Descending FlightAware ADS-B
Sun 03:44:44 AM -23.3920 -46.3130 251° West 185 213 4,600 -655 Descending FlightAware ADS-B
Sun 03:45:14 AM -23.3990 -46.3400 254° West 173 199 4,200 -800 Descending FlightAware ADS-B
Sun 03:45:29 AM -23.4020 -46.3510 253° West 156 180 4,000 -346 Descending FlightAware ADS-B
Sun 03:46:06 AM -23.4070 -46.3730 256° West 150 173 3,900 -429 Descending FlightAware ADS-B
Sun 03:46:39 AM -23.4160 -46.4040 252° West 146 168 3,500 -762 Descending FlightAware ADS-B
Sun 03:47:09 AM -23.4220 -46.4240 252° West 148 170 3,100 -764 Descending FlightAware ADS-B
Sun 03:47:34 AM -23.4270 -46.4430 254° West 148 170 2,800 -514 Descending FlightAware ADS-B
Sun 03:48:19 AM -23.4340 -46.4730 256° West 152 175 2,500 -400 Descending FlightAware ADS-B
Sun 03:48:44 AM -23.4370 -46.4820 250° West 29 33 -6,000 Descending FlightAware ADS-B
Sun 03:49:14 AM -23.4350 -46.4830 335° Northwest 16 18  Level FlightAware ADS-B
Sun 03:49:44 AM -23.4340 -46.4830 360° North 11 13  Level FlightAware ADS-B
Sun 03:49:59 AM -23.4330 -46.4840 317° Northwest 10 12  Level FlightAware ADS-B
Sun 03:50:09 AM -23.4330 -46.4830 90° East 13 15  Level FlightAware ADS-B
Sun 03:50:24 AM -23.4320 -46.4820 43° Northeast 17 20  Level FlightAware ADS-B
Sun 03:50:54 AM -23.4320 -46.4800 90° East 20 23  Level FlightAware ADS-B
Sun 03:51:09 AM -23.4310 -46.4780 61° Northeast 14 16  Level FlightAware ADS-B
Sun 03:52:09 AM -23.4290 -46.4780 360° North 12 14  Level FlightAware ADS-B
Sun 03:52:44 AM -23.4280 -46.4780 360° North 8 9  Level FlightAware ADS-B
Sun 03:53:09 AM -23.4280 -46.4770 90° East 1 1  Level FlightAware ADS-B
Sun 03:55:00 AM -23.4321 -46.4695 121° Southeast  Level Estimated
Sun 03:56:00 AM -23.4321 -46.4695 350° North  Level Estimated
Sun 03:57:00 AM -23.4321 -46.4695 350° North  Level Estimated
Sun 03:58:00 AM -23.4321 -46.4695 350° North  Level Estimated
Sun 03:59:00 AM -23.4321 -46.4695 350° North  Level Estimated
Sun 04:00:00 AM -23.4321 -46.4695 350° North  Level Estimated
Sun 04:01:00 AM -23.4321 -46.4695 350° North  Level Estimated
Sun 04:02:00 AM -23.4321 -46.4695 350° North  Level Estimated
Sun 04:03:00 AM -23.4321 -46.4695 350° North  Level Estimated
Sun 04:04:00 AM -23.4321 -46.4695 350° North  Level Estimated
Sun 04:05:00 AM -23.4321 -46.4695 350° North  Level Estimated
Sun 04:06:00 AM -23.4321 -46.4695 350° North  Level Estimated
Sun 04:07:00 AM -23.4321 -46.4695 350° North  Level Estimated
Sun 04:08:00 AM -23.4321 -46.4695 350° North  Level Estimated
Sun 04:09:00 AM -23.4321 -46.4695 350° North  Level Estimated
Sun 04:10:00 AM -23.4321 -46.4695 350° North  Level Estimated
Sun 04:11:00 AM -23.4321 -46.4695 350° North  Level Estimated
Sun 04:12:00 AM -23.4321 -46.4695 350° North  Level Estimated
Sun 04:13:00 AM -23.4321 -46.4695 350° North  Level Estimated
Sun 04:14:00 AM -23.4321 -46.4695 350° North  Level Estimated
Sun 04:15:00 AM -23.4321 -46.4695 350° North  Level Estimated
Sun 04:16:00 AM -23.4321 -46.4695 350° North  Level Estimated
Sun 04:17:00 AM -23.4321 -46.4695 350° North  Level Estimated
Sun 04:18:00 AM -23.4321 -46.4695 350° North  Level Estimated
Sun 04:19:00 AM -23.4321 -46.4695 350° North  Level Estimated
Sun 04:20:00 AM -23.4321 -46.4695 350° North  Level Estimated
Sun 04:21:00 AM -23.4321 -46.4695 350° North  Level Estimated
Sun 04:22:00 AM -23.4321 -46.4695 350° North  Level Estimated
Sun 04:23:00 AM -23.4321 -46.4695 350° North  Level Estimated
Sun 04:24:00 AM -23.4321 -46.4695 350° North  Level Estimated
Sun 04:25:00 AM -23.4321 -46.4695 350° North  Level Estimated

Login

Don't have an account? Register now (free) for customized features, flight alerts, and more!